Vera, Oklahoma
Current Conditions -  °F | °C
As of 1:53 PM on Saturday 20 Dec 2014 (Local Time) from KTUL Reporting Station
Overcast Overcast  
Wind Chill: 41°   Ceiling: 2300
Heat Index: 45°   Visibility: 10mi
Dew Point: 36°   Wind: 8mph
Humidity: 71%   Direction: 170°S
Pressure: 30.2"   Gusts: NA
Location:  36.45°N, 95.88°W
Report Text: KTUL 201953Z 17007KT 10SM OVC023 07/02 A3020 RMK AO2 SLP227 T00720022
Loading
Personal Weather Stations






























Interactive Weather Map New forecast layout! Learn more

10-Day Weather Forecast

Advertisements
Track Severe Weather on mobile